Orlando, Florida
Current Conditions -  °F | °C
As of 5:53 AM on Sunday 21 Dec 2014 (Local Time) from KORL Reporting Station
Overcast Overcast  
Wind Chill: 63°   Ceiling: 8000
Heat Index: 63°   Visibility: 9mi
Dew Point: 61°   Wind: 5mph
Humidity: 93%   Direction: 90°E
Pressure: 30.07"   Gusts: NA
Location:  28.54°N, 81.38°W
Report Text: KORL 211053Z AUTO 09004KT 9SM BKN080 OVC110 17/16 A3007 RMK AO2 SLP186 T01720161
Loading
Personal Weather Stations






























Interactive Weather Map New forecast layout! Learn more

10-Day Weather Forecast

Advertisements
Track Severe Weather on mobile